Time;durP1;ratioP1;P1;durP2;ratioP2;P2;SDS_P1;SDS_P2;PMS_P1;PMS_P2;Temp;Humidity;BMP_temperature;BMP_pressure;BME280_temperature;BME280_humidity;BME280_pressure;Samples;Min_cycle;Max_cycle;Signal;HPM_P1;HPM_P2
2022/01/28 00:03:10;;;;;;;5.05;1.27;;;;;;;3.84;77.73;100106.63;10471186;28;20064;-77
2022/01/28 00:08:11;;;;;;;2.75;0.82;;;;;;;3.70;79.15;100105.81;10472418;28;20080;-77
2022/01/28 00:13:26;;;;;;;2.40;0.80;;;;;;;3.74;76.48;100102.34;10476686;28;20525;-77
2022/01/28 00:39:50;;;;;;;5.55;1.05;;;;;;;3.44;77.55;100156.09;10470663;28;20136;-77
2022/01/28 00:44:51;;;;;;;7.97;1.23;;;;;;;3.59;75.75;100168.22;10466285;28;20598;-76
2022/01/28 00:49:53;;;;;;;4.13;0.85;;;;;;;3.77;75.21;100175.13;10468996;28;20390;-76
2022/01/28 00:54:55;;;;;;;4.38;0.75;;;;;;;3.78;74.90;100185.53;10469016;28;20478;-78
2022/01/28 00:59:56;;;;;;;4.38;1.05;;;;;;;3.80;72.57;100190.72;10453719;28;20056;-76
2022/01/28 01:04:58;;;;;;;5.13;1.52;;;;;;;3.59;72.89;100230.63;10465871;28;20392;-76
2022/01/28 01:10:00;;;;;;;3.35;0.93;;;;;;;3.77;72.72;100217.59;10468042;28;20157;-77
2022/01/28 01:15:02;;;;;;;2.53;0.75;;;;;;;3.80;72.90;100234.91;10465379;28;20107;-77
2022/01/28 01:25:27;;;;;;;4.75;0.90;;;;;;;3.63;73.46;100268.75;10416417;28;20124;-77
2022/01/28 01:30:33;;;;;;;5.35;0.95;;;;;;;3.60;73.37;100255.75;10418192;28;20056;-76
2022/01/28 01:35:35;;;;;;;6.45;1.20;;;;;;;3.69;72.51;100260.06;10419771;28;20045;-76
2022/01/28 01:40:54;;;;;;;5.95;1.23;;;;;;;3.62;72.05;100253.13;10416356;28;20103;-75
2022/01/28 01:46:09;;;;;;;6.05;1.40;;;;;;;3.67;71.75;100267.00;10416678;28;20045;-75
2022/01/28 01:56:33;;;;;;;4.93;1.08;;;;;;;3.57;71.46;100278.25;10418697;28;20073;-75
2022/01/28 02:01:36;;;;;;;6.45;1.55;;;;;;;3.56;71.20;100281.72;10419727;28;20053;-76
2022/01/28 02:06:38;;;;;;;4.82;1.30;;;;;;;3.72;69.48;100266.16;10417508;28;20414;-76
2022/01/28 02:11:40;;;;;;;6.03;1.60;;;;;;;3.63;70.85;100271.34;10416840;28;20077;-76
2022/01/28 02:16:42;;;;;;;4.70;0.82;;;;;;;3.66;70.38;100273.91;10418805;28;20193;-75
2022/01/28 02:21:48;;;;;;;9.52;0.80;;;;;;;3.70;70.57;100288.66;10417885;28;20056;-77
2022/01/28 02:26:50;;;;;;;6.00;0.90;;;;;;;3.55;72.66;100291.25;10418802;28;20101;-75
2022/01/28 02:31:52;;;;;;;5.43;1.60;;;;;;;3.54;72.80;100305.09;10426241;28;20050;-74
2022/01/28 02:36:55;;;;;;;5.32;0.88;;;;;;;3.61;72.26;100316.38;10408059;28;20493;-75
2022/01/28 02:42:14;;;;;;;5.07;1.00;;;;;;;3.54;73.09;100316.41;10424853;28;20052;-77
2022/01/28 02:47:28;;;;;;;7.88;1.20;;;;;;;3.53;73.33;100321.56;10427001;28;20502;-76
2022/01/28 02:52:43;;;;;;;3.55;0.88;;;;;;;3.39;72.56;100328.47;10408641;28;20471;-76
2022/01/28 02:57:52;;;;;;;5.32;1.27;;;;;;;3.44;72.72;100332.81;10424873;28;20042;-76
2022/01/28 03:02:54;;;;;;;5.80;1.45;;;;;;;3.40;73.04;100325.88;10392853;28;20458;-75
2022/01/28 03:07:56;;;;;;;5.05;1.05;;;;;;;3.33;74.01;100333.69;10407522;28;20077;-75
2022/01/28 03:13:14;;;;;;;6.38;1.10;;;;;;;3.24;74.17;100339.72;10424788;28;20041;-75
2022/01/28 03:18:21;;;;;;;4.05;0.93;;;;;;;3.40;72.25;100331.06;10423292;28;20049;-75
2022/01/28 03:23:23;;;;;;;2.60;1.00;;;;;;;3.32;72.99;100334.50;10424053;28;20048;-76
2022/01/28 03:28:24;;;;;;;4.22;0.95;;;;;;;3.23;73.62;100320.66;10406466;28;20053;-75
2022/01/28 03:33:26;;;;;;;6.45;1.55;;;;;;;3.19;74.19;100339.69;10422594;28;20038;-76
2022/01/28 03:38:27;;;;;;;5.15;1.00;;;;;;;3.19;74.20;100329.31;10422460;28;20491;-75
2022/01/28 03:43:29;;;;;;;8.00;1.30;;;;;;;3.24;73.60;100353.56;10422030;28;20072;-75
2022/01/28 03:48:31;;;;;;;4.35;1.23;;;;;;;3.32;73.22;100353.59;10421129;28;20045;-76
2022/01/28 03:53:32;;;;;;;6.03;1.20;;;;;;;3.43;72.28;100364.88;10419288;28;20041;-74
2022/01/28 03:58:34;;;;;;;6.72;1.48;;;;;;;3.63;70.79;100358.84;10419559;28;20049;-75
2022/01/28 04:03:41;;;;;;;6.75;1.52;;;;;;;3.45;71.95;100365.75;10421092;28;20121;-74
2022/01/28 04:14:13;;;;;;;7.80;1.40;;;;;;;3.61;70.15;100379.63;10418613;28;20529;-76
2022/01/28 04:19:14;;;;;;;9.25;1.90;;;;;;;3.59;70.32;100390.91;10420443;28;20045;-76
2022/01/28 04:24:16;;;;;;;7.20;1.48;;;;;;;3.45;70.95;100383.06;10402240;28;20053;-76
2022/01/28 04:29:18;;;;;;;7.13;1.48;;;;;;;3.64;69.56;100392.66;10401826;28;20050;-76
2022/01/28 04:34:22;;;;;;;10.85;1.92;;;;;;;3.68;69.66;100415.19;10420725;28;20049;-76
2022/01/28 04:39:51;;;;;;;9.02;1.80;;;;;;;3.50;72.48;100438.53;10420855;28;20054;-75
2022/01/28 04:50:36;;;;;;;6.82;1.00;;;;;;;3.32;74.31;100451.44;10418042;28;20148;-76
2022/01/28 04:56:01;;;;;;;7.82;1.30;;;;;;;3.19;74.65;100448.81;10402234;28;20054;-76
2022/01/28 05:27:01;;;;;;;7.20;1.95;;;;;;;3.03;76.55;100485.94;10419140;28;20072;-76
2022/01/28 05:32:03;;;;;;;10.45;2.08;;;;;;;3.02;76.79;100490.28;10420607;28;20046;-77
2022/01/28 05:37:06;;;;;;;11.10;1.75;;;;;;;3.13;74.97;100502.44;10419722;28;20049;-75
2022/01/28 05:42:08;;;;;;;5.68;1.92;;;;;;;3.08;75.92;100492.03;10401739;28;20120;-76
2022/01/28 05:47:14;;;;;;;6.38;2.20;;;;;;;2.92;77.47;100505.75;10418514;28;20483;-74
2022/01/28 05:52:16;;;;;;;19.03;2.43;;;;;;;2.90;77.89;100510.97;10416287;28;20042;-77
2022/01/28 05:57:17;;;;;;;9.63;4.22;;;;;;;2.90;77.56;100504.91;10416442;28;20402;-78
2022/01/28 06:02:19;;;;;;;11.82;3.78;;;;;;;2.97;76.87;100533.53;10418709;28;20348;-76
2022/01/28 06:07:21;;;;;;;7.22;2.13;;;;;;;3.06;75.29;100537.06;10424912;28;20041;-78
2022/01/28 06:12:23;;;;;;;9.20;2.22;;;;;;;3.14;75.69;100538.81;10433273;28;20083;-78
2022/01/28 06:17:26;;;;;;;11.20;2.15;;;;;;;3.07;77.18;100549.16;10442259;28;20064;-77
2022/01/28 06:22:28;;;;;;;6.85;1.63;;;;;;;3.12;76.29;100560.47;10440166;28;20045;-76
2022/01/28 06:27:32;;;;;;;13.25;1.95;;;;;;;2.98;76.53;100558.63;10419408;28;20112;-77
2022/01/28 06:32:34;;;;;;;15.02;2.10;;;;;;;2.94;77.70;100559.47;10431695;28;20068;-76
2022/01/28 06:37:42;;;;;;;16.08;2.40;;;;;;;3.00;76.91;100563.81;10428401;28;20041;-77
2022/01/28 06:42:45;;;;;;;16.55;2.22;;;;;;;3.08;75.86;100571.69;10412194;28;20096;-76
2022/01/28 06:47:48;;;;;;;8.05;1.80;;;;;;;3.01;76.25;100591.53;10394214;28;20049;-78
2022/01/28 06:52:50;;;;;;;15.00;2.67;;;;;;;3.21;73.48;100592.56;10426692;28;20069;-77
2022/01/28 06:57:54;;;;;;;13.00;2.80;;;;;;;3.00;76.05;100605.38;10429242;28;20056;-76
2022/01/28 07:02:56;;;;;;;15.07;2.35;;;;;;;3.09;74.72;100609.78;10428105;28;20042;-76
2022/01/28 07:07:58;;;;;;;10.38;2.17;;;;;;;3.11;74.13;100613.28;10427372;28;20113;-78
2022/01/28 07:13:00;;;;;;;16.63;2.80;;;;;;;3.10;74.26;100621.91;10412459;28;20140;-76
2022/01/28 07:18:03;;;;;;;9.88;2.20;;;;;;;3.19;75.40;100624.59;10410982;28;20503;-76
2022/01/28 07:23:06;;;;;;;12.05;2.45;;;;;;;2.98;76.78;100631.34;10412970;28;20387;-77
2022/01/28 07:28:08;;;;;;;11.02;2.60;;;;;;;3.03;75.89;100645.22;10428870;28;20076;-77
2022/01/28 07:33:10;;;;;;;12.55;2.38;;;;;;;3.17;74.72;100681.72;10415207;28;20606;-77
2022/01/28 07:38:12;;;;;;;9.30;2.00;;;;;;;3.15;74.99;100667.84;10429616;28;20056;-76
2022/01/28 07:43:18;;;;;;;8.93;2.60;;;;;;;3.12;74.30;100680.81;10427009;28;20056;-75
2022/01/28 07:48:20;;;;;;;13.48;2.20;;;;;;;3.16;74.01;100697.31;10427278;28;20056;-75
2022/01/28 07:53:23;;;;;;;9.50;1.98;;;;;;;3.11;75.47;100714.56;10431608;28;20073;-75
2022/01/28 07:58:24;;;;;;;12.05;2.40;;;;;;;2.94;77.34;100701.41;10429596;28;20421;-76
2022/01/28 08:03:26;;;;;;;6.80;1.70;;;;;;;3.06;74.35;100706.75;10429280;28;20045;-75
2022/01/28 08:08:30;;;;;;;11.02;2.05;;;;;;;3.16;74.18;100737.13;10413536;28;20045;-76
2022/01/28 08:13:32;;;;;;;6.75;1.90;;;;;;;3.26;73.75;100732.88;10411090;28;20033;-75
2022/01/28 08:18:35;;;;;;;10.43;2.00;;;;;;;3.13;74.70;100738.81;10409202;28;20420;-75
2022/01/28 08:23:37;;;;;;;9.68;1.88;;;;;;;3.13;75.71;100777.78;10411683;28;20041;-74
2022/01/28 08:28:42;;;;;;;12.63;2.38;;;;;;;2.60;82.85;100770.25;10427396;28;20586;-77
2022/01/28 08:33:44;;;;;;;8.90;1.67;;;;;;;2.58;82.54;100778.03;10426591;28;20080;-76
2022/01/28 08:38:49;;;;;;;11.70;2.10;;;;;;;2.61;82.50;100792.75;10428322;28;20041;-75
2022/01/28 08:43:53;;;;;;;17.30;2.50;;;;;;;2.69;81.38;100812.78;10425992;28;20128;-76
2022/01/28 08:48:55;;;;;;;8.88;1.90;;;;;;;2.64;81.13;100817.03;10432051;28;20076;-75
2022/01/28 08:53:58;;;;;;;12.35;2.42;;;;;;;2.63;80.65;100809.25;10432206;28;20105;-76
2022/01/28 08:58:59;;;;;;;16.33;2.65;;;;;;;2.81;78.63;100825.06;10432495;28;20049;-75
2022/01/28 09:04:01;;;;;;;11.57;2.78;;;;;;;2.99;76.92;100835.66;10433041;28;20562;-76
2022/01/28 09:09:04;;;;;;;16.75;3.55;;;;;;;3.06;75.16;100851.34;10432400;28;20061;-76
2022/01/28 09:14:06;;;;;;;16.65;3.80;;;;;;;3.07;74.83;100858.25;10432929;28;20037;-77
2022/01/28 09:19:08;;;;;;;21.40;4.07;;;;;;;3.01;75.69;100874.63;10429340;28;20083;-76
2022/01/28 09:24:10;;;;;;;12.85;2.42;;;;;;;2.99;76.19;100873.75;10424477;28;20100;-77
2022/01/28 09:29:12;;;;;;;17.88;3.50;;;;;;;3.06;75.19;100885.09;10421510;28;20101;-76
2022/01/28 09:34:13;;;;;;;18.75;3.20;;;;;;;3.04;74.97;100898.91;10420818;28;20059;-75
2022/01/28 09:39:16;;;;;;;15.18;2.63;;;;;;;3.12;73.67;100905.94;10429666;28;20060;-76
2022/01/28 09:44:18;;;;;;;15.63;2.63;;;;;;;3.19;73.10;100906.03;10434592;28;20046;-76
2022/01/28 09:49:20;;;;;;;25.67;4.10;;;;;;;3.07;74.18;100907.63;10434550;28;20107;-75
2022/01/28 09:54:22;;;;;;;15.48;3.50;;;;;;;3.14;73.67;100912.00;10435281;28;20100;-75
2022/01/28 09:59:24;;;;;;;18.88;3.20;;;;;;;3.01;73.80;100913.56;10434890;28;20041;-76
2022/01/28 10:04:25;;;;;;;26.75;4.28;;;;;;;3.16;73.52;100931.13;10414867;28;20112;-76
2022/01/28 10:09:27;;;;;;;25.15;3.63;;;;;;;3.20;73.21;100948.47;10434218;28;20080;-77
2022/01/28 10:14:29;;;;;;;16.75;2.10;;;;;;;3.24;72.70;100937.28;10415275;28;20049;-76
2022/01/28 10:19:40;;;;;;;19.98;3.58;;;;;;;3.07;74.38;100949.19;10431887;28;20045;-76
2022/01/28 10:24:42;;;;;;;15.73;3.03;;;;;;;3.15;74.12;100950.16;10416170;28;20042;-76
2022/01/28 10:29:44;;;;;;;22.08;2.80;;;;;;;3.11;74.87;100951.84;10433961;28;20049;-76
2022/01/28 10:34:48;;;;;;;18.27;3.30;;;;;;;3.10;74.48;100962.19;10434575;28;20487;-76
2022/01/28 10:40:00;;;;;;;19.67;3.00;;;;;;;3.26;73.40;100966.75;10431551;28;20413;-75
2022/01/28 10:45:09;;;;;;;14.55;2.90;;;;;;;3.21;73.04;100963.22;10429340;28;20060;-76
2022/01/28 10:50:37;;;;;;;11.90;2.85;;;;;;;3.27;73.94;100966.75;10426821;28;20490;-77
2022/01/28 10:55:53;;;;;;;17.27;3.20;;;;;;;3.26;72.86;100965.00;10415857;28;20541;-76
2022/01/28 11:00:57;;;;;;;22.73;3.63;;;;;;;3.29;72.25;100975.44;10424226;28;20101;-77
2022/01/28 11:06:01;;;;;;;18.63;3.28;;;;;;;3.43;70.37;100987.75;10423358;28;20045;-75
2022/01/28 11:11:02;;;;;;;19.20;3.05;;;;;;;3.43;70.38;100986.03;10406425;28;20057;-76
2022/01/28 11:16:04;;;;;;;22.60;3.55;;;;;;;3.50;70.89;100990.44;10406141;28;20037;-76
2022/01/28 11:21:14;;;;;;;13.05;2.30;;;;;;;3.67;69.71;100992.34;10422801;28;20041;-76
2022/01/28 11:26:17;;;;;;;16.27;2.75;;;;;;;3.56;69.63;101004.38;10423463;28;20052;-76
2022/01/28 11:31:53;;;;;;;14.68;3.30;;;;;;;3.65;68.33;101007.94;10404464;28;20064;-76
2022/01/28 11:36:58;;;;;;;17.33;3.27;;;;;;;3.59;69.11;101007.88;10422744;28;20050;-75
2022/01/28 11:42:02;;;;;;;15.90;3.58;;;;;;;3.59;68.77;101009.63;10421893;28;20084;-74
2022/01/28 11:47:04;;;;;;;16.17;3.40;;;;;;;3.58;68.55;101032.13;10422008;28;20124;-75
2022/01/28 11:52:30;;;;;;;17.45;3.17;;;;;;;3.65;67.98;101027.88;10421063;28;20055;-76
2022/01/28 11:57:32;;;;;;;15.80;2.67;;;;;;;3.68;68.86;101038.34;10411369;28;20136;-74
2022/01/28 12:02:46;;;;;;;18.02;4.10;;;;;;;3.70;68.40;101029.69;10402580;28;20551;-74
2022/01/28 12:07:49;;;;;;;19.67;4.07;;;;;;;3.65;68.90;101038.28;10402825;28;20080;-74
2022/01/28 12:12:59;;;;;;;16.38;3.70;;;;;;;3.64;68.88;101042.63;10420062;28;20128;-75
2022/01/28 12:18:11;;;;;;;29.70;5.75;;;;;;;3.73;68.13;101047.94;10418769;28;20037;-75
2022/01/28 12:23:13;;;;;;;23.13;3.35;;;;;;;3.79;67.40;101052.31;10384296;28;20061;-76
2022/01/28 12:28:37;;;;;;;21.17;3.35;;;;;;;3.65;68.05;101043.47;10417266;28;20095;-76
2022/01/28 12:33:42;;;;;;;19.45;2.60;;;;;;;3.75;67.16;101040.13;10412542;28;20128;-74
2022/01/28 12:44:03;;;;;;;18.88;3.58;;;;;;;3.79;67.32;101039.31;10419741;28;20038;-76
2022/01/28 12:49:08;;;;;;;16.95;2.75;;;;;;;3.91;65.74;101047.28;10416480;28;20721;-76
2022/01/28 12:54:10;;;;;;;15.23;3.47;;;;;;;3.94;65.34;101042.13;10416523;28;20402;-75
2022/01/28 12:59:12;;;;;;;17.80;2.60;;;;;;;3.87;65.94;101049.81;10420889;28;20073;-76
2022/01/28 13:04:17;;;;;;;22.02;3.55;;;;;;;4.29;64.04;101050.31;10424754;28;20037;-75
2022/01/28 13:09:24;;;;;;;16.25;3.53;;;;;;;4.20;65.45;101044.09;10424227;28;20053;-75
2022/01/28 13:14:32;;;;;;;20.40;3.07;;;;;;;4.13;64.18;101045.78;10403417;28;20487;-76
2022/01/28 13:19:36;;;;;;;18.85;4.38;;;;;;;4.17;64.44;101049.28;10419664;28;20539;-75
2022/01/28 13:24:38;;;;;;;11.07;2.97;;;;;;;4.36;63.85;101051.22;10436108;22;20049;-76
2022/01/28 13:29:51;;;;;;;25.48;4.38;;;;;;;4.36;64.40;101066.84;10445832;28;20529;-74
2022/01/28 13:34:58;;;;;;;12.70;3.10;;;;;;;4.28;64.64;101071.94;10465038;28;20075;-75
2022/01/28 13:40:01;;;;;;;16.25;3.30;;;;;;;4.18;64.64;101079.66;10464081;28;20051;-74
2022/01/28 13:45:06;;;;;;;36.10;13.63;;;;;;;4.35;63.86;101101.53;10465142;28;20041;-75
2022/01/28 13:50:07;;;;;;;12.07;2.95;;;;;;;4.28;64.60;101097.97;10446191;28;20399;-74
2022/01/28 13:55:32;;;;;;;16.98;6.63;;;;;;;4.44;63.32;101117.25;10448661;28;20053;-75
2022/01/28 14:00:39;;;;;;;20.67;3.30;;;;;;;4.17;65.40;101123.03;10461874;28;20037;-76
2022/01/28 14:05:50;;;;;;;31.35;13.80;;;;;;;4.19;65.33;101134.31;10461012;28;20047;-74
2022/01/28 14:11:32;;;;;;;12.82;2.65;;;;;;;3.90;66.77;101130.50;10462416;28;20402;-75
2022/01/28 14:16:34;;;;;;;28.38;6.32;;;;;;;4.10;66.04;101146.34;10464742;28;20037;-75
2022/01/28 14:21:37;;;;;;;21.30;5.75;;;;;;;4.10;65.90;101142.00;10463284;28;20119;-73
2022/01/28 14:26:43;;;;;;;15.02;3.17;;;;;;;3.94;65.74;101156.56;10468172;28;20094;-75
2022/01/28 14:31:45;;;;;;;19.67;3.43;;;;;;;4.13;64.60;101162.88;10450530;28;20518;-74
2022/01/28 14:36:49;;;;;;;16.65;5.10;;;;;;;4.11;65.91;101166.31;10435970;28;20095;-72
2022/01/28 14:41:53;;;;;;;20.65;7.38;;;;;;;3.96;65.83;101180.00;10452388;28;20574;-74
2022/01/28 14:46:55;;;;;;;26.30;3.45;;;;;;;3.89;66.38;101173.81;10470004;28;20091;-73
2022/01/28 14:52:01;;;;;;;19.45;3.50;;;;;;;4.11;65.17;101176.72;10472707;28;20120;-73
2022/01/28 14:57:09;;;;;;;15.27;4.25;;;;;;;3.99;65.55;101180.03;10453395;28;20482;-74
2022/01/28 15:02:15;;;;;;;14.90;2.42;;;;;;;3.96;65.93;101187.78;10403868;28;20450;-73
2022/01/28 15:07:19;;;;;;;12.77;3.20;;;;;;;4.04;65.83;101189.66;10411391;28;20053;-73
2022/01/28 15:12:21;;;;;;;24.50;4.43;;;;;;;3.95;66.26;101196.47;10444646;28;20041;-73
2022/01/28 15:17:23;;;;;;;13.05;3.78;;;;;;;4.12;66.04;101207.06;10471578;28;20052;-73
2022/01/28 15:22:25;;;;;;;20.63;3.58;;;;;;;3.84;66.97;101211.03;10471432;28;20045;-73
2022/01/28 15:27:29;;;;;;;15.23;3.05;;;;;;;4.07;65.87;101212.22;10451630;28;20048;-73
2022/01/28 15:38:12;;;;;;;14.48;3.03;;;;;;;3.86;66.65;101223.22;10450661;28;20049;-73
2022/01/28 15:43:16;;;;;;;20.70;3.50;;;;;;;3.88;66.15;101223.22;10452766;28;20049;-73
2022/01/28 15:48:18;;;;;;;19.38;2.53;;;;;;;3.74;67.01;101242.09;10409838;28;20084;-73
2022/01/28 15:53:19;;;;;;;12.27;3.35;;;;;;;3.78;66.97;101235.22;10426186;28;20136;-73
2022/01/28 15:58:21;;;;;;;14.80;3.30;;;;;;;3.76;66.98;101244.72;10408810;28;20061;-73
2022/01/28 16:03:23;;;;;;;14.90;3.13;;;;;;;3.66;67.25;101243.72;10427962;28;20041;-72
2022/01/28 16:08:24;;;;;;;14.15;3.65;;;;;;;3.45;68.12;101259.84;10408543;28;20056;-73
2022/01/28 16:13:39;;;;;;;13.18;2.63;;;;;;;3.58;67.53;101260.91;10426220;28;20099;-72
2022/01/28 16:18:40;;;;;;;17.00;2.47;;;;;;;3.61;67.68;101270.50;10421554;28;20388;-72
2022/01/28 16:23:42;;;;;;;15.68;2.72;;;;;;;3.47;68.22;101280.66;10429797;28;20045;-72
2022/01/28 16:28:44;;;;;;;20.67;2.70;;;;;;;3.36;68.97;101296.06;10471946;28;20045;-72
2022/01/28 16:33:46;;;;;;;18.08;3.97;;;;;;;3.25;69.25;101292.41;10469956;28;20049;-73
2022/01/28 16:38:50;;;;;;;23.35;3.92;;;;;;;3.28;69.40;101308.94;10469391;28;20041;-73
2022/01/28 16:44:06;;;;;;;14.80;3.33;;;;;;;3.28;69.29;101311.53;10451012;28;20525;-73
2022/01/28 16:49:10;;;;;;;17.85;3.80;;;;;;;3.21;69.21;101316.59;10473377;28;20111;-72
2022/01/28 16:54:12;;;;;;;13.32;4.18;;;;;;;3.26;68.89;101318.41;10451683;28;20048;-73
2022/01/28 16:59:14;;;;;;;17.42;2.55;;;;;;;3.20;69.06;101331.31;10469078;28;20045;-73
2022/01/28 17:04:15;;;;;;;21.00;3.60;;;;;;;3.34;68.25;101339.34;10467320;28;20037;-73
2022/01/28 17:09:26;;;;;;;12.65;3.13;;;;;;;3.42;67.59;101348.16;10470157;28;20038;-72
2022/01/28 17:14:27;;;;;;;18.35;3.22;;;;;;;3.35;67.99;101335.03;10451033;28;20055;-74
2022/01/28 17:19:29;;;;;;;18.15;3.90;;;;;;;3.29;68.13;101335.78;10452348;28;20057;-74
2022/01/28 17:24:31;;;;;;;18.30;3.30;;;;;;;3.13;68.91;101344.13;10451796;28;20056;-73
2022/01/28 17:29:39;;;;;;;13.80;3.45;;;;;;;3.26;68.29;101357.38;10470196;28;20385;-73
2022/01/28 17:34:40;;;;;;;11.98;2.40;;;;;;;3.16;68.84;101365.00;10469246;28;20047;-74
2022/01/28 17:39:43;;;;;;;21.65;3.10;;;;;;;3.03;69.28;101371.66;10468093;28;20039;-73
2022/01/28 17:44:47;;;;;;;18.10;3.45;;;;;;;3.02;70.01;101370.78;10467569;28;20044;-73
2022/01/28 17:49:49;;;;;;;13.95;2.97;;;;;;;3.17;69.19;101367.59;10450596;28;20132;-73
2022/01/28 17:54:51;;;;;;;17.63;2.88;;;;;;;3.18;69.38;101373.69;10453538;28;20041;-73
2022/01/28 17:59:54;;;;;;;19.88;3.33;;;;;;;3.10;69.54;101383.94;10439272;28;20048;-73
2022/01/28 18:04:55;;;;;;;22.42;3.65;;;;;;;2.93;70.40;101380.13;10457904;28;20045;-74
2022/01/28 18:09:57;;;;;;;16.95;2.90;;;;;;;3.16;69.31;101386.66;10460439;28;20049;-73
2022/01/28 18:14:59;;;;;;;16.13;3.65;;;;;;;2.90;70.91;101386.13;10460748;28;20045;-73
2022/01/28 18:20:02;;;;;;;22.23;3.85;;;;;;;2.90;70.54;101401.69;10460036;28;20052;-73
2022/01/28 18:25:04;;;;;;;16.00;3.72;;;;;;;2.98;70.53;101405.34;10458216;28;20124;-73
2022/01/28 18:30:10;;;;;;;20.42;4.07;;;;;;;2.76;71.11;101401.41;10474730;28;20068;-74
2022/01/28 18:35:12;;;;;;;18.85;4.03;;;;;;;2.73;71.46;101400.44;10456869;28;20053;-74
2022/01/28 18:40:16;;;;;;;17.35;4.75;;;;;;;2.75;71.20;101398.78;10454987;28;20487;-74
2022/01/28 18:45:28;;;;;;;13.75;3.30;;;;;;;2.78;71.30;101394.50;10453961;28;20037;-73
2022/01/28 18:50:30;;;;;;;15.02;3.40;;;;;;;2.75;71.21;101394.47;10473813;28;20497;-73
2022/01/28 18:55:34;;;;;;;15.20;3.05;;;;;;;2.76;71.46;101396.22;10472467;28;20059;-73
2022/01/28 19:00:36;;;;;;;20.73;4.50;;;;;;;2.53;72.37;101397.44;10458341;28;20053;-73
2022/01/28 19:05:38;;;;;;;18.55;3.67;;;;;;;2.50;72.79;101398.22;10439345;28;20102;-74
2022/01/28 19:10:40;;;;;;;20.33;4.82;;;;;;;2.71;71.35;101405.63;10455017;28;20055;-74
2022/01/28 19:15:42;;;;;;;29.60;3.70;;;;;;;2.74;71.61;101413.44;10453879;28;20414;-74
2022/01/28 19:20:44;;;;;;;14.60;4.82;;;;;;;2.55;72.01;101420.81;10456440;28;20052;-72
2022/01/28 19:25:46;;;;;;;23.40;4.43;;;;;;;2.71;71.51;101421.19;10473832;23;20124;-71
2022/01/28 19:30:48;;;;;;;18.10;3.58;;;;;;;2.64;72.08;101419.28;10461377;28;20518;-72
2022/01/28 19:35:50;;;;;;;19.38;3.35;;;;;;;2.67;72.10;101413.31;10461814;28;20132;-72
2022/01/28 19:40:51;;;;;;;19.55;4.07;;;;;;;2.68;72.02;101405.53;10448707;28;20040;-72
2022/01/28 19:46:02;;;;;;;17.08;3.90;;;;;;;2.80;71.37;101414.47;10425964;28;20045;-72
2022/01/28 19:51:05;;;;;;;22.20;3.85;;;;;;;2.77;71.59;101417.84;10459826;28;20056;-74
2022/01/28 19:56:07;;;;;;;19.50;4.00;;;;;;;2.83;71.16;101406.72;10438590;28;20494;-72
2022/01/28 20:01:09;;;;;;;20.50;4.13;;;;;;;2.90;71.08;101414.69;10418834;28;20061;-72
2022/01/28 20:06:10;;;;;;;16.52;3.72;;;;;;;2.68;71.86;101423.72;10418109;28;20037;-73
2022/01/28 20:11:14;;;;;;;11.60;3.60;;;;;;;2.86;71.37;101428.44;10422249;28;20083;-74
2022/01/28 20:16:16;;;;;;;22.80;4.93;;;;;;;2.70;72.33;101421.13;10459499;28;20045;-72
2022/01/28 20:21:18;;;;;;;29.83;4.35;;;;;;;2.70;72.38;101423.75;10459091;28;20103;-73
2022/01/28 20:26:20;;;;;;;17.17;3.85;;;;;;;2.60;73.15;101432.16;10458651;28;20442;-73
2022/01/28 20:31:25;;;;;;;18.95;4.32;;;;;;;2.86;72.16;101431.03;10458259;28;20064;-73
2022/01/28 20:36:27;;;;;;;20.92;4.57;;;;;;;2.68;72.65;101428.91;10457726;28;20049;-74
2022/01/28 20:41:28;;;;;;;17.67;4.40;;;;;;;2.95;71.57;101431.22;10458228;28;20037;-72
2022/01/28 20:46:30;;;;;;;21.08;3.85;;;;;;;2.84;72.10;101429.28;10457529;28;20045;-72
2022/01/28 20:51:32;;;;;;;21.00;4.40;;;;;;;2.87;71.78;101437.97;10457289;28;20071;-74
2022/01/28 20:56:34;;;;;;;14.38;2.85;;;;;;;2.86;71.62;101425.84;10456552;28;20052;-74
2022/01/28 21:01:35;;;;;;;17.10;3.90;;;;;;;3.00;70.76;101428.72;10456958;28;20076;-72
2022/01/28 21:06:38;;;;;;;15.55;3.15;;;;;;;2.84;71.16;101435.34;10457266;28;20056;-73
2022/01/28 21:11:39;;;;;;;22.80;3.72;;;;;;;2.70;71.87;101440.22;10456653;28;20056;-73
2022/01/28 21:16:42;;;;;;;15.23;3.47;;;;;;;2.76;71.81;101436.88;10456124;28;20048;-73
2022/01/28 21:21:44;;;;;;;16.00;3.15;;;;;;;2.74;71.32;101435.94;10456097;28;20041;-72
2022/01/28 21:26:45;;;;;;;32.92;4.80;;;;;;;2.71;71.15;101439.38;10456005;28;20048;-72
2022/01/28 21:31:47;;;;;;;29.77;3.58;;;;;;;2.68;71.42;101444.50;10455878;28;20049;-72
2022/01/28 21:36:49;;;;;;;10.25;3.08;;;;;;;2.60;71.93;101445.16;10455079;28;20517;-73
2022/01/28 21:41:50;;;;;;;20.80;3.50;;;;;;;2.55;72.26;101451.97;10456424;28;20045;-71
2022/01/28 21:46:52;;;;;;;19.67;4.05;;;;;;;2.64;71.96;101452.16;10455596;28;20487;-72
2022/01/28 21:51:53;;;;;;;24.58;4.18;;;;;;;2.65;71.97;101443.53;10455320;28;20091;-73
2022/01/28 21:56:55;;;;;;;11.43;3.25;;;;;;;2.65;71.97;101453.91;10455817;28;20041;-74
2022/01/28 22:01:56;;;;;;;24.80;3.50;;;;;;;2.69;71.66;101446.22;10454800;28;20045;-72
2022/01/28 22:07:00;;;;;;;20.20;3.83;;;;;;;2.64;72.40;101441.78;10455928;28;20099;-71
2022/01/28 22:12:01;;;;;;;18.90;4.25;;;;;;;2.46;73.14;101448.28;10455400;28;20053;-71
2022/01/28 22:17:03;;;;;;;10.73;3.38;;;;;;;2.72;71.94;101438.53;10454760;28;20045;-71
2022/01/28 22:22:05;;;;;;;19.83;3.90;;;;;;;2.65;72.44;101438.34;10453226;28;20517;-73
2022/01/28 22:27:06;;;;;;;16.45;3.72;;;;;;;2.83;71.89;101430.97;10454680;28;20410;-72
2022/01/28 22:32:08;;;;;;;30.90;3.83;;;;;;;2.69;72.14;101424.59;10454509;28;20049;-72
2022/01/28 22:37:09;;;;;;;10.85;3.40;;;;;;;2.72;72.02;101417.75;10454135;28;20041;-72
2022/01/28 22:42:11;;;;;;;16.15;3.97;;;;;;;2.55;73.20;101406.09;10454033;28;20474;-73
2022/01/28 22:47:13;;;;;;;14.43;3.25;;;;;;;2.58;73.30;101406.19;10460909;28;20041;-73
2022/01/28 22:52:14;;;;;;;12.75;3.58;;;;;;;2.57;73.45;101412.22;10461952;28;20049;-71
2022/01/28 22:57:16;;;;;;;21.25;3.75;;;;;;;2.56;73.35;101412.16;10461491;28;20041;-73
2022/01/28 23:02:17;;;;;;;12.05;2.95;;;;;;;2.58;73.22;101405.31;10460775;28;20119;-71
2022/01/28 23:07:21;;;;;;;20.05;3.72;;;;;;;2.44;73.95;101398.09;10462187;28;20100;-71
2022/01/28 23:12:23;;;;;;;27.20;4.40;;;;;;;2.35;73.78;101400.47;10459425;28;20494;-71
2022/01/28 23:17:25;;;;;;;13.05;3.40;;;;;;;2.38;73.91;101400.53;10458812;28;20045;-72
2022/01/28 23:22:28;;;;;;;17.90;3.03;;;;;;;2.24;74.11;101389.81;10459570;28;20044;-72
2022/01/28 23:27:31;;;;;;;19.42;3.15;;;;;;;2.35;73.25;101374.53;10458143;28;20048;-71
2022/01/28 23:32:32;;;;;;;13.43;2.90;;;;;;;2.13;73.92;101370.56;10460120;28;20049;-72
2022/01/28 23:37:34;;;;;;;16.58;3.90;;;;;;;2.18;73.46;101355.09;10458394;28;20056;-72
2022/01/28 23:42:39;;;;;;;15.98;3.72;;;;;;;2.10;73.71;101359.22;10458447;28;20049;-72
2022/01/28 23:47:40;;;;;;;12.38;3.00;;;;;;;1.94;74.18;101355.38;10457787;28;20052;-72
2022/01/28 23:52:42;;;;;;;19.23;3.78;;;;;;;1.94;74.42;101353.66;10459983;28;20053;-70
2022/01/28 23:57:44;;;;;;;19.15;3.72;;;;;;;1.84;74.46;101338.72;10459498;28;20045;-71
